Time;durP1;ratioP1;P1;durP2;ratioP2;P2;SDS_P1;SDS_P2;PMS_P1;PMS_P2;Temp;Humidity;BMP_temperature;BMP_pressure;BME280_temperature;BME280_humidity;BME280_pressure;Samples;Min_cycle;Max_cycle;Signal;HPM_P1;HPM_P2
2020/12/08 00:00:13;;;;;;;6.80;2.60;;;7.70;99.90;;;;;;5112477;28;20043;-53
2020/12/08 00:03:17;;;;;;;7.95;2.60;;;7.70;99.90;;;;;;5111815;28;20067;-53
2020/12/08 00:06:21;;;;;;;7.47;2.47;;;7.70;99.90;;;;;;5112342;28;20474;-52
2020/12/08 00:09:25;;;;;;;4.30;2.35;;;7.80;99.90;;;;;;5112528;28;20027;-51
2020/12/08 00:12:29;;;;;;;7.68;2.60;;;7.80;99.90;;;;;;5111284;28;20402;-58
2020/12/08 00:15:33;;;;;;;4.47;2.50;;;7.80;99.90;;;;;;5112560;28;20039;-56
2020/12/08 00:18:38;;;;;;;5.75;2.58;;;7.80;99.90;;;;;;5112193;28;20039;-56
2020/12/08 00:21:46;;;;;;;5.10;2.78;;;7.80;99.90;;;;;;5111919;28;20039;-54
2020/12/08 00:24:50;;;;;;;15.38;2.67;;;7.70;99.90;;;;;;5111969;28;20375;-51
2020/12/08 00:27:55;;;;;;;8.60;2.50;;;7.70;99.90;;;;;;5112378;28;20038;-54
2020/12/08 00:30:59;;;;;;;4.47;2.25;;;7.70;99.90;;;;;;5111968;28;20482;-53
2020/12/08 00:34:04;;;;;;;6.40;2.40;;;7.80;99.90;;;;;;5111420;28;20039;-53
2020/12/08 00:37:09;;;;;;;6.07;2.30;;;7.80;99.90;;;;;;5113180;27;20039;-51
2020/12/08 00:40:14;;;;;;;8.35;2.45;;;7.90;99.90;;;;;;5115143;27;20039;-51
2020/12/08 00:43:18;;;;;;;7.65;2.28;;;8.00;99.90;;;;;;5111037;28;20039;-53
2020/12/08 00:46:22;;;;;;;9.85;2.30;;;8.10;99.90;;;;;;5111856;28;20412;-55
2020/12/08 00:49:27;;;;;;;6.88;1.80;;;8.10;99.90;;;;;;5110738;28;20501;-54
2020/12/08 00:52:32;;;;;;;7.80;2.28;;;8.40;99.90;;;;;;5111304;28;20375;-52
2020/12/08 00:55:36;;;;;;;5.05;1.80;;;8.50;99.90;;;;;;5110936;28;20035;-51
2020/12/08 00:58:42;;;;;;;5.68;2.22;;;8.50;99.90;;;;;;5110319;28;20051;-51
2020/12/08 01:01:50;;;;;;;7.95;2.13;;;8.50;99.90;;;;;;5111188;28;20395;-55
2020/12/08 01:04:54;;;;;;;4.47;1.58;;;8.60;99.90;;;;;;5110078;28;20371;-56
2020/12/08 01:07:59;;;;;;;5.88;1.92;;;8.70;99.90;;;;;;5110574;28;20032;-51
2020/12/08 01:11:07;;;;;;;4.60;1.83;;;8.70;99.90;;;;;;5109718;28;20039;-50
2020/12/08 01:14:14;;;;;;;5.43;2.50;;;8.70;99.90;;;;;;5109921;28;20043;-51
2020/12/08 01:17:19;;;;;;;5.47;2.85;;;8.40;99.90;;;;;;5121093;27;20489;-51
2020/12/08 01:20:23;;;;;;;6.38;3.20;;;8.10;99.90;;;;;;5109730;28;20035;-50
2020/12/08 01:23:31;;;;;;;5.82;2.38;;;7.80;99.90;;;;;;5109828;28;20182;-50
2020/12/08 01:26:36;;;;;;;5.90;1.80;;;7.80;99.90;;;;;;5109725;28;20047;-53
2020/12/08 01:29:41;;;;;;;3.17;1.60;;;8.10;99.90;;;;;;5110030;28;20035;-53
2020/12/08 01:32:45;;;;;;;3.03;1.10;;;8.50;99.90;;;;;;5110491;28;20039;-51
2020/12/08 01:35:50;;;;;;;4.03;1.17;;;8.50;99.90;;;;;;5108923;28;20035;-51
2020/12/08 01:38:55;;;;;;;4.22;1.10;;;8.90;99.90;;;;;;5109702;28;20723;-53
2020/12/08 01:41:59;;;;;;;5.57;1.20;;;9.10;99.90;;;;;;5108762;28;20044;-52
2020/12/08 01:45:08;;;;;;;1.85;0.90;;;9.40;99.90;;;;;;5109243;28;20408;-51
2020/12/08 01:48:14;;;;;;;3.75;1.20;;;9.40;99.90;;;;;;5112745;27;20039;-53
2020/12/08 01:51:21;;;;;;;3.88;1.23;;;9.40;99.90;;;;;;5119401;27;20031;-52
2020/12/08 01:54:26;;;;;;;2.70;1.50;;;9.40;99.90;;;;;;5110485;28;20043;-50
2020/12/08 01:57:33;;;;;;;4.90;1.15;;;9.30;99.90;;;;;;5109604;28;20035;-52
2020/12/08 02:00:42;;;;;;;8.55;1.92;;;9.20;99.90;;;;;;5109041;28;20036;-55
2020/12/08 02:03:49;;;;;;;3.30;1.08;;;9.20;99.90;;;;;;5109063;28;20039;-53
2020/12/08 02:06:53;;;;;;;6.07;1.38;;;9.10;99.90;;;;;;5108685;28;20035;-53
2020/12/08 02:09:58;;;;;;;4.47;1.23;;;8.90;99.90;;;;;;5109232;28;20040;-52
2020/12/08 02:13:10;;;;;;;5.95;1.77;;;8.80;99.90;;;;;;5108920;28;20043;-53
2020/12/08 02:16:20;;;;;;;4.53;1.30;;;8.70;99.90;;;;;;5109866;27;20047;-53
2020/12/08 02:19:30;;;;;;;3.25;1.10;;;8.70;99.90;;;;;;5116083;27;20498;-55
2020/12/08 02:22:35;;;;;;;3.35;1.10;;;8.70;99.90;;;;;;5108964;28;20035;-53
2020/12/08 02:25:42;;;;;;;1.20;0.85;;;8.60;99.90;;;;;;5108687;28;20110;-51
2020/12/08 02:28:51;;;;;;;4.80;1.30;;;8.60;99.90;;;;;;5109593;28;20028;-53
2020/12/08 02:31:57;;;;;;;5.55;0.98;;;8.60;99.90;;;;;;5108857;28;20039;-53
2020/12/08 02:35:02;;;;;;;4.05;1.20;;;8.60;99.90;;;;;;5108987;28;20043;-52
2020/12/08 02:38:06;;;;;;;2.53;0.80;;;8.60;99.90;;;;;;5128168;28;20039;-51
2020/12/08 02:41:10;;;;;;;4.93;0.90;;;8.60;99.90;;;;;;5125286;28;20043;-52
2020/12/08 02:44:14;;;;;;;1.17;0.70;;;8.50;99.90;;;;;;5122859;28;20035;-53
2020/12/08 02:47:20;;;;;;;3.95;0.90;;;8.60;99.90;;;;;;5113963;28;20032;-52
2020/12/08 02:50:26;;;;;;;3.20;1.00;;;8.60;99.90;;;;;;5108997;28;20035;-58
2020/12/08 02:53:50;;;;;;;3.33;1.00;;;8.50;99.90;;;;;;5122058;28;20039;-58
2020/12/08 02:56:54;;;;;;;1.23;0.88;;;8.50;99.90;;;;;;5108427;28;20040;-53
2020/12/08 03:00:07;;;;;;;2.40;1.10;;;8.50;99.90;;;;;;5112671;28;20035;-53
2020/12/08 03:03:12;;;;;;;1.65;1.10;;;8.50;99.90;;;;;;5111665;27;20035;-53
2020/12/08 03:06:17;;;;;;;4.80;0.88;;;8.60;99.90;;;;;;5128411;27;20023;-54
2020/12/08 03:09:22;;;;;;;0.80;0.50;;;8.60;99.90;;;;;;5123753;27;20039;-52
2020/12/08 03:12:26;;;;;;;1.27;0.57;;;8.50;99.90;;;;;;5122082;27;20043;-55
2020/12/08 03:15:32;;;;;;;1.98;0.52;;;8.60;99.90;;;;;;5111844;28;20036;-54
2020/12/08 03:18:41;;;;;;;0.60;0.40;;;8.70;99.90;;;;;;5124320;27;20035;-58
2020/12/08 03:21:46;;;;;;;1.42;0.65;;;8.60;99.90;;;;;;5111830;28;20035;-53
2020/12/08 03:25:04;;;;;;;1.48;0.50;;;8.50;99.90;;;;;;5112151;28;20040;-52
2020/12/08 03:28:09;;;;;;;1.00;0.50;;;8.50;99.90;;;;;;5112397;28;20040;-55
2020/12/08 03:31:16;;;;;;;0.40;0.40;;;8.50;99.90;;;;;;5111835;28;20032;-56
2020/12/08 03:34:21;;;;;;;0.57;0.47;;;8.70;99.90;;;;;;5112368;28;20031;-54
2020/12/08 03:37:26;;;;;;;1.55;0.70;;;8.60;99.90;;;;;;5111883;28;20044;-52
2020/12/08 03:40:36;;;;;;;0.90;0.60;;;8.70;99.90;;;;;;5111317;28;20044;-53
2020/12/08 03:43:44;;;;;;;2.65;0.60;;;8.60;99.90;;;;;;5113392;27;20036;-55
2020/12/08 03:46:49;;;;;;;0.70;0.40;;;8.70;99.90;;;;;;5118662;27;20040;-54
2020/12/08 03:49:54;;;;;;;1.23;0.50;;;8.70;99.90;;;;;;5119186;27;20044;-55
2020/12/08 03:52:58;;;;;;;0.73;0.47;;;8.70;99.90;;;;;;5112484;28;20036;-51
2020/12/08 03:56:13;;;;;;;1.35;0.63;;;8.70;99.90;;;;;;5110968;28;20028;-52
2020/12/08 03:59:19;;;;;;;1.30;0.40;;;8.80;99.90;;;;;;5111472;28;20040;-55
2020/12/08 04:02:30;;;;;;;0.63;0.40;;;8.80;99.90;;;;;;5111152;28;20035;-55
2020/12/08 04:05:35;;;;;;;2.00;0.65;;;8.90;99.90;;;;;;5111971;28;20281;-53
2020/12/08 04:08:41;;;;;;;0.55;0.40;;;8.80;99.90;;;;;;5112626;28;20487;-52
2020/12/08 04:11:46;;;;;;;1.42;0.40;;;8.90;99.90;;;;;;5110712;28;20035;-56
2020/12/08 04:14:51;;;;;;;0.73;0.40;;;8.90;99.90;;;;;;5111406;28;20035;-53
2020/12/08 04:17:55;;;;;;;0.30;0.30;;;8.90;99.90;;;;;;5110734;28;20214;-56
2020/12/08 04:21:00;;;;;;;0.75;0.40;;;8.90;99.90;;;;;;5111069;28;20039;-53
2020/12/08 04:24:04;;;;;;;1.63;0.60;;;8.80;99.90;;;;;;5111149;28;20040;-53
2020/12/08 04:27:09;;;;;;;3.60;0.60;;;8.80;99.90;;;;;;5110456;28;20375;-54
2020/12/08 04:30:24;;;;;;;2.15;0.40;;;8.70;99.90;;;;;;5111002;28;20391;-56
2020/12/08 04:33:28;;;;;;;0.70;0.40;;;8.80;99.90;;;;;;5110940;28;20035;-56
2020/12/08 04:36:32;;;;;;;1.90;0.90;;;8.80;99.90;;;;;;5111306;28;20071;-54
2020/12/08 04:39:36;;;;;;;0.32;0.30;;;8.70;99.90;;;;;;5111929;28;20047;-53
2020/12/08 04:42:47;;;;;;;0.35;0.30;;;8.70;99.90;;;;;;5111351;28;20522;-53
2020/12/08 04:45:53;;;;;;;0.57;0.40;;;8.80;99.90;;;;;;5126148;27;20027;-54
2020/12/08 04:48:57;;;;;;;1.48;0.38;;;8.70;99.90;;;;;;5111661;28;20032;-52
2020/12/08 04:52:01;;;;;;;0.93;0.40;;;8.90;99.90;;;;;;5111857;28;20039;-54
2020/12/08 04:55:05;;;;;;;0.20;0.20;;;9.00;99.90;;;;;;5111088;27;20027;-52
2020/12/08 04:58:09;;;;;;;2.30;0.45;;;9.00;99.90;;;;;;5125323;27;20043;-54
2020/12/08 05:01:41;;;;;;;1.17;0.30;;;8.90;99.90;;;;;;5119123;27;20046;-55
2020/12/08 05:04:54;;;;;;;1.13;0.40;;;8.80;99.90;;;;;;5127109;27;20043;-54
2020/12/08 05:08:11;;;;;;;0.30;0.30;;;8.80;99.90;;;;;;5131405;27;20513;-52
2020/12/08 05:11:15;;;;;;;0.82;0.82;;;8.70;99.90;;;;;;5131256;27;20039;-53
2020/12/08 05:14:19;;;;;;;0.90;0.60;;;8.70;99.90;;;;;;5119871;27;20489;-56
2020/12/08 05:17:24;;;;;;;0.22;0.20;;;8.70;99.90;;;;;;5126111;27;20039;-54
2020/12/08 05:20:29;;;;;;;2.50;0.35;;;8.60;99.90;;;;;;5117577;27;20051;-55
2020/12/08 05:23:51;;;;;;;0.88;0.40;;;8.60;99.90;;;;;;5131206;27;20043;-53
2020/12/08 05:27:00;;;;;;;0.47;0.30;;;8.50;99.90;;;;;;5120472;27;20390;-52
2020/12/08 05:30:07;;;;;;;2.30;0.50;;;8.40;99.90;;;;;;5119617;27;20035;-53
2020/12/08 05:33:16;;;;;;;1.65;0.60;;;8.40;99.90;;;;;;5131343;27;20035;-53
2020/12/08 05:36:20;;;;;;;1.58;0.50;;;8.30;99.90;;;;;;5131020;27;20039;-52
2020/12/08 05:39:25;;;;;;;1.00;0.40;;;8.20;99.90;;;;;;5130896;27;20042;-55
2020/12/08 05:42:33;;;;;;;1.15;0.52;;;8.10;99.90;;;;;;5130723;27;20043;-58
2020/12/08 05:45:38;;;;;;;3.78;0.98;;;8.20;99.90;;;;;;5131334;27;20481;-55
2020/12/08 05:48:42;;;;;;;1.02;0.40;;;8.10;99.90;;;;;;5130560;27;20035;-52
2020/12/08 05:51:48;;;;;;;0.30;0.30;;;8.10;99.90;;;;;;5130806;27;20039;-53
2020/12/08 05:54:56;;;;;;;0.47;0.40;;;8.20;99.90;;;;;;5116408;27;20043;-53
2020/12/08 05:58:09;;;;;;;1.30;0.30;;;8.10;99.90;;;;;;5130343;27;20039;-53
2020/12/08 06:01:14;;;;;;;2.22;0.50;;;8.10;99.90;;;;;;5130511;27;20055;-52
2020/12/08 06:04:18;;;;;;;0.68;0.60;;;8.00;99.90;;;;;;5130807;27;20043;-53
2020/12/08 06:07:31;;;;;;;1.77;0.98;;;8.00;99.90;;;;;;5130640;27;20043;-53
2020/12/08 06:10:46;;;;;;;0.88;0.77;;;8.10;99.90;;;;;;5130176;27;20073;-52
2020/12/08 06:13:50;;;;;;;3.45;0.90;;;8.00;99.90;;;;;;5130705;27;20370;-54
2020/12/08 06:17:02;;;;;;;0.60;0.55;;;8.00;99.90;;;;;;5130607;27;20039;-53
2020/12/08 06:20:07;;;;;;;0.70;0.55;;;8.00;99.90;;;;;;5129936;27;20039;-56
2020/12/08 06:23:14;;;;;;;0.70;0.40;;;8.00;99.90;;;;;;5130279;27;20027;-52
2020/12/08 06:26:29;;;;;;;1.15;0.60;;;8.00;99.90;;;;;;5130289;27;20389;-52
2020/12/08 06:29:33;;;;;;;1.27;1.17;;;8.00;99.90;;;;;;5129139;27;20031;-56
2020/12/08 06:32:42;;;;;;;1.30;1.10;;;8.00;99.90;;;;;;5130019;27;20031;-55
2020/12/08 06:35:46;;;;;;;2.28;1.25;;;7.90;99.90;;;;;;5130150;27;20047;-55
2020/12/08 06:39:04;;;;;;;0.60;0.50;;;7.90;99.90;;;;;;5129955;28;20404;-52
2020/12/08 06:42:13;;;;;;;0.80;0.80;;;8.10;99.90;;;;;;5129803;28;20505;-56
2020/12/08 06:45:19;;;;;;;0.80;0.80;;;8.10;99.90;;;;;;5130013;28;20035;-54
2020/12/08 06:48:23;;;;;;;1.83;0.50;;;8.00;99.90;;;;;;5129959;28;20057;-56
2020/12/08 06:51:28;;;;;;;1.80;0.40;;;8.00;99.90;;;;;;5129893;28;20324;-52
2020/12/08 06:54:33;;;;;;;1.15;0.40;;;8.10;99.90;;;;;;5130100;28;20043;-53
2020/12/08 06:57:37;;;;;;;0.38;0.38;;;8.30;99.90;;;;;;5122933;27;20047;-56
2020/12/08 07:00:44;;;;;;;1.38;0.60;;;8.40;99.90;;;;;;5113718;28;20035;-52
2020/12/08 07:03:49;;;;;;;0.98;0.70;;;8.30;99.90;;;;;;5115052;28;20048;-56
2020/12/08 07:06:54;;;;;;;1.00;0.80;;;8.20;99.90;;;;;;5119874;28;20508;-55
2020/12/08 07:09:59;;;;;;;0.90;0.70;;;8.10;99.90;;;;;;5118859;27;20028;-55
2020/12/08 07:13:13;;;;;;;3.00;0.80;;;8.00;99.90;;;;;;5126340;27;20473;-54
2020/12/08 07:16:18;;;;;;;1.02;0.88;;;8.10;99.90;;;;;;5113884;28;20035;-52
2020/12/08 07:19:22;;;;;;;1.35;0.57;;;8.10;99.90;;;;;;5118768;28;20040;-53
2020/12/08 07:22:26;;;;;;;2.47;0.50;;;8.30;99.90;;;;;;5116002;28;20225;-55
2020/12/08 07:25:31;;;;;;;0.95;0.50;;;8.30;99.90;;;;;;5118757;28;20382;-58
2020/12/08 07:28:35;;;;;;;1.83;0.63;;;8.30;99.90;;;;;;5115568;28;20054;-55
2020/12/08 07:31:46;;;;;;;0.52;0.50;;;8.30;99.90;;;;;;5121251;28;20035;-58
2020/12/08 07:34:50;;;;;;;0.77;0.50;;;8.40;99.90;;;;;;5115711;28;20035;-56
2020/12/08 07:37:58;;;;;;;0.63;0.50;;;8.40;99.90;;;;;;5126320;28;20379;-59
2020/12/08 07:41:03;;;;;;;0.57;0.40;;;8.50;99.90;;;;;;5108701;28;20035;-55
2020/12/08 07:44:12;;;;;;;2.42;0.77;;;8.80;99.90;;;;;;5110751;27;20061;-59
2020/12/08 07:47:17;;;;;;;1.60;0.50;;;8.80;99.90;;;;;;5122491;27;20039;-56
2020/12/08 07:50:27;;;;;;;0.82;0.63;;;8.70;99.90;;;;;;5112464;28;20036;-56
2020/12/08 07:53:36;;;;;;;0.85;0.50;;;8.80;99.90;;;;;;5113053;27;20036;-58
2020/12/08 07:56:40;;;;;;;1.75;0.70;;;8.70;99.90;;;;;;5113029;28;20506;-55
2020/12/08 07:59:46;;;;;;;2.28;1.50;;;8.60;99.90;;;;;;5111450;28;20039;-55
2020/12/08 08:02:50;;;;;;;2.15;1.15;;;8.40;99.90;;;;;;5116427;27;20036;-57
2020/12/08 08:05:56;;;;;;;2.80;1.52;;;8.20;99.90;;;;;;5120225;27;20028;-56
2020/12/08 08:09:05;;;;;;;7.07;1.70;;;8.00;99.90;;;;;;5118960;27;20046;-55
2020/12/08 08:12:09;;;;;;;2.83;1.88;;;8.00;99.90;;;;;;5112236;27;20036;-58
2020/12/08 08:15:13;;;;;;;5.45;2.25;;;8.00;99.90;;;;;;5115528;27;20542;-58
2020/12/08 08:18:17;;;;;;;4.28;1.70;;;8.00;99.90;;;;;;5118952;27;20043;-56
2020/12/08 08:21:21;;;;;;;2.17;1.60;;;8.00;99.90;;;;;;5122236;27;20039;-59
2020/12/08 08:24:25;;;;;;;2.30;1.55;;;8.00;99.90;;;;;;5129187;27;20039;-58
2020/12/08 08:27:30;;;;;;;2.80;2.15;;;8.10;99.90;;;;;;5118799;27;20027;-57
2020/12/08 08:30:34;;;;;;;5.93;2.30;;;8.10;99.90;;;;;;5116926;27;20031;-52
2020/12/08 08:33:38;;;;;;;3.70;3.10;;;8.10;99.90;;;;;;5119148;27;20035;-55
2020/12/08 08:36:53;;;;;;;2.70;2.30;;;8.10;99.90;;;;;;5119375;27;20517;-54
2020/12/08 08:39:57;;;;;;;4.07;1.70;;;8.10;99.90;;;;;;5117100;27;20031;-55
2020/12/08 08:43:02;;;;;;;2.63;1.80;;;8.10;99.90;;;;;;5123966;27;20043;-55
2020/12/08 08:46:08;;;;;;;2.85;1.85;;;8.10;99.90;;;;;;5124189;27;20031;-55
2020/12/08 08:49:14;;;;;;;3.05;1.33;;;8.10;99.90;;;;;;5111292;28;20032;-59
2020/12/08 08:52:18;;;;;;;4.07;1.90;;;8.20;99.90;;;;;;5124920;27;20031;-58
2020/12/08 08:55:22;;;;;;;2.70;1.83;;;8.20;99.90;;;;;;5116591;27;20052;-53
2020/12/08 08:58:26;;;;;;;3.17;2.38;;;8.30;99.90;;;;;;5111156;28;20398;-56
2020/12/08 09:01:32;;;;;;;4.85;2.47;;;8.30;99.90;;;;;;5113382;27;20518;-54
2020/12/08 09:04:36;;;;;;;5.30;2.10;;;8.30;99.90;;;;;;5110951;27;20035;-56
2020/12/08 09:07:41;;;;;;;8.73;3.33;;;8.40;99.90;;;;;;5114444;27;20035;-57
2020/12/08 09:10:45;;;;;;;3.65;2.70;;;8.40;99.90;;;;;;5112745;27;20035;-57
2020/12/08 09:13:49;;;;;;;5.03;3.17;;;8.50;99.90;;;;;;5115649;27;20061;-58
2020/12/08 09:16:53;;;;;;;6.50;4.20;;;8.50;99.90;;;;;;5117847;27;20438;-56
2020/12/08 09:19:57;;;;;;;10.10;6.00;;;8.50;99.90;;;;;;5115125;27;20393;-56
2020/12/08 09:23:02;;;;;;;6.68;5.40;;;8.50;99.90;;;;;;5113091;27;20528;-57
2020/12/08 09:26:06;;;;;;;21.52;5.95;;;8.50;99.90;;;;;;5119020;27;20031;-57
2020/12/08 09:29:10;;;;;;;9.80;5.22;;;8.50;99.90;;;;;;5120356;27;20424;-55
2020/12/08 09:32:14;;;;;;;6.20;4.30;;;8.40;99.90;;;;;;5118531;27;20035;-57
2020/12/08 09:35:18;;;;;;;4.32;3.22;;;8.60;99.90;;;;;;5123498;27;20039;-55
2020/12/08 09:38:22;;;;;;;4.90;3.65;;;8.60;99.90;;;;;;5124253;27;20035;-56
2020/12/08 09:41:27;;;;;;;4.53;2.60;;;8.60;99.90;;;;;;5122900;27;20031;-58
2020/12/08 09:44:31;;;;;;;7.72;5.40;;;8.60;99.90;;;;;;5123117;27;20542;-55
2020/12/08 09:47:36;;;;;;;3.28;2.55;;;8.70;99.90;;;;;;5126069;27;20035;-53
2020/12/08 09:50:41;;;;;;;11.93;6.88;;;8.70;99.90;;;;;;5122719;27;20039;-54
2020/12/08 09:53:46;;;;;;;3.20;2.42;;;8.80;99.90;;;;;;5119922;27;20026;-53
2020/12/08 09:56:50;;;;;;;3.95;2.63;;;8.90;99.90;;;;;;5119005;27;20065;-57
2020/12/08 09:59:54;;;;;;;6.75;4.38;;;9.10;99.90;;;;;;5128852;27;20702;-57
2020/12/08 10:02:58;;;;;;;6.95;2.80;;;9.10;99.90;;;;;;5123017;27;20840;-58
2020/12/08 10:06:03;;;;;;;3.30;1.55;;;9.20;99.90;;;;;;5123390;27;20046;-56
2020/12/08 10:09:09;;;;;;;2.95;2.00;;;9.30;99.90;;;;;;5117433;27;20062;-58
2020/12/08 10:12:20;;;;;;;1.60;0.98;;;9.30;99.90;;;;;;5120230;27;20032;-53
2020/12/08 10:15:28;;;;;;;3.03;1.63;;;9.40;99.90;;;;;;5125975;27;20043;-58
2020/12/08 10:18:33;;;;;;;4.45;1.50;;;9.50;99.90;;;;;;5121816;27;20034;-58
2020/12/08 10:21:40;;;;;;;4.22;2.20;;;9.50;99.90;;;;;;5125441;27;20501;-56
2020/12/08 10:24:45;;;;;;;3.20;1.88;;;9.40;99.90;;;;;;5126878;27;20059;-55
2020/12/08 10:27:50;;;;;;;4.53;1.33;;;9.50;99.90;;;;;;5120539;27;20039;-56
2020/12/08 10:30:54;;;;;;;2.70;1.75;;;9.60;99.90;;;;;;5122791;27;20046;-61
2020/12/08 10:33:58;;;;;;;2.67;1.20;;;9.50;99.90;;;;;;5122824;27;20031;-58
2020/12/08 10:37:02;;;;;;;1.27;0.73;;;9.50;99.90;;;;;;5130661;27;20035;-57
2020/12/08 10:40:06;;;;;;;1.52;0.80;;;9.60;99.90;;;;;;5123486;27;20035;-54
2020/12/08 10:43:11;;;;;;;1.58;0.93;;;9.60;99.90;;;;;;5120395;27;20055;-57
2020/12/08 10:46:15;;;;;;;0.70;0.60;;;9.60;99.90;;;;;;5129525;27;20034;-57
2020/12/08 10:49:22;;;;;;;1.10;0.70;;;9.60;99.90;;;;;;5120132;27;20042;-56
2020/12/08 10:52:29;;;;;;;1.13;0.90;;;9.50;99.90;;;;;;5137454;27;20890;-52
2020/12/08 10:55:34;;;;;;;1.73;1.02;;;9.40;99.90;;;;;;5124561;27;20035;-56
2020/12/08 10:58:38;;;;;;;2.33;1.00;;;9.40;99.90;;;;;;5112883;27;20046;-58
2020/12/08 11:01:43;;;;;;;3.28;0.85;;;9.40;99.90;;;;;;5117536;27;20043;-58
2020/12/08 11:04:48;;;;;;;2.95;0.70;;;9.50;99.90;;;;;;5126061;27;20031;-57
2020/12/08 11:07:52;;;;;;;26.00;15.70;;;9.50;99.90;;;;;;5120457;27;20038;-55
2020/12/08 11:10:56;;;;;;;2.03;1.10;;;9.50;99.90;;;;;;5123751;27;20125;-54
2020/12/08 11:14:01;;;;;;;2.35;1.48;;;9.50;99.90;;;;;;5118174;27;20048;-60
2020/12/08 11:17:05;;;;;;;1.75;1.50;;;9.50;99.90;;;;;;5123070;27;20031;-56
2020/12/08 11:20:09;;;;;;;2.05;1.42;;;9.50;99.90;;;;;;5112431;27;20039;-57
2020/12/08 11:23:15;;;;;;;1.77;1.13;;;9.50;99.90;;;;;;5114005;27;20039;-55
2020/12/08 11:26:19;;;;;;;2.60;1.67;;;9.50;99.90;;;;;;5118859;27;20039;-53
2020/12/08 11:29:24;;;;;;;1.58;0.95;;;9.60;99.90;;;;;;5120812;27;20027;-56
2020/12/08 11:32:28;;;;;;;6.55;1.42;;;9.70;99.90;;;;;;5120232;27;20047;-53
2020/12/08 11:35:33;;;;;;;5.15;1.30;;;9.90;99.90;;;;;;5132077;27;20035;-58
2020/12/08 11:38:37;;;;;;;2.63;1.30;;;10.10;99.90;;;;;;5122853;27;20047;-54
2020/12/08 11:41:42;;;;;;;2.15;1.00;;;10.20;99.90;;;;;;5111405;28;20051;-57
2020/12/08 11:44:46;;;;;;;3.92;2.28;;;10.10;99.90;;;;;;5113150;27;20042;-55
2020/12/08 11:47:51;;;;;;;7.47;4.18;;;10.20;99.90;;;;;;5127591;27;20046;-56
2020/12/08 11:50:56;;;;;;;3.35;2.15;;;10.30;99.90;;;;;;5111913;28;20066;-59
2020/12/08 11:54:00;;;;;;;6.28;3.50;;;10.40;99.90;;;;;;5111729;28;20039;-53
2020/12/08 11:57:04;;;;;;;6.40;3.47;;;10.50;99.90;;;;;;5119280;27;20046;-55
2020/12/08 12:00:09;;;;;;;2.55;2.08;;;10.50;99.90;;;;;;5117363;27;20449;-52
2020/12/08 12:03:20;;;;;;;3.22;1.52;;;10.40;99.90;;;;;;5117238;27;20513;-58
2020/12/08 12:06:25;;;;;;;3.95;2.50;;;10.40;99.90;;;;;;5119388;27;20065;-57
2020/12/08 12:09:29;;;;;;;3.13;2.10;;;10.50;99.90;;;;;;5115946;27;20394;-56
2020/12/08 12:12:33;;;;;;;3.58;1.67;;;10.60;99.90;;;;;;5113028;27;20043;-57
2020/12/08 12:15:38;;;;;;;1.80;1.33;;;10.40;99.90;;;;;;5113202;27;20050;-54
2020/12/08 12:18:42;;;;;;;7.18;1.90;;;10.50;99.90;;;;;;5111906;27;20043;-55
2020/12/08 12:21:46;;;;;;;3.13;1.30;;;10.40;99.90;;;;;;5113584;27;20607;-54
2020/12/08 12:24:50;;;;;;;1.70;1.10;;;10.40;99.90;;;;;;5115694;27;20039;-54
2020/12/08 12:27:55;;;;;;;1.42;1.02;;;10.30;99.90;;;;;;5115842;27;20039;-53
2020/12/08 12:30:59;;;;;;;1.35;1.00;;;10.30;99.90;;;;;;5113470;27;20034;-56
2020/12/08 12:34:03;;;;;;;1.70;1.08;;;10.30;99.90;;;;;;5116942;27;20039;-54
2020/12/08 12:37:07;;;;;;;3.70;2.20;;;10.30;99.90;;;;;;5112987;27;20038;-55
2020/12/08 12:40:11;;;;;;;7.10;3.38;;;10.50;99.90;;;;;;5116780;27;20034;-54
2020/12/08 12:43:15;;;;;;;6.43;2.63;;;10.50;99.90;;;;;;5111643;27;20062;-56
2020/12/08 12:46:19;;;;;;;7.85;2.80;;;10.40;99.90;;;;;;5113288;27;20042;-53
2020/12/08 12:49:23;;;;;;;1.67;0.98;;;10.30;99.90;;;;;;5122539;27;20035;-52
2020/12/08 12:52:28;;;;;;;1.20;0.80;;;10.40;99.90;;;;;;5119805;27;20039;-54
2020/12/08 12:55:33;;;;;;;3.35;1.50;;;10.40;99.90;;;;;;5115365;27;20035;-56
2020/12/08 12:58:37;;;;;;;5.60;2.92;;;10.30;99.90;;;;;;5115972;27;20042;-54
2020/12/08 13:01:42;;;;;;;11.70;8.23;;;10.40;99.90;;;;;;5119000;27;20042;-55
2020/12/08 13:04:47;;;;;;;5.35;3.55;;;10.70;99.90;;;;;;5125618;27;20421;-54
2020/12/08 13:07:51;;;;;;;5.18;2.17;;;10.80;99.90;;;;;;5130372;27;20396;-53
2020/12/08 13:10:55;;;;;;;5.43;2.35;;;11.00;99.90;;;;;;5128566;27;20042;-54
2020/12/08 13:13:59;;;;;;;12.77;5.40;;;11.00;99.90;;;;;;5124953;27;20046;-56
2020/12/08 13:17:03;;;;;;;2.30;1.45;;;10.90;99.90;;;;;;5126408;27;20045;-58
2020/12/08 13:20:07;;;;;;;4.80;2.30;;;10.90;99.90;;;;;;5126628;27;20050;-54
2020/12/08 13:23:11;;;;;;;3.47;1.90;;;10.90;99.90;;;;;;5124593;27;20035;-55
2020/12/08 13:26:16;;;;;;;4.18;1.98;;;10.80;99.90;;;;;;5126569;27;20102;-53
2020/12/08 13:29:20;;;;;;;3.45;1.25;;;10.70;99.90;;;;;;5127536;27;20061;-53
2020/12/08 13:32:24;;;;;;;5.70;2.83;;;10.70;99.90;;;;;;5121729;27;20046;-53
2020/12/08 13:35:29;;;;;;;3.58;1.60;;;10.60;99.90;;;;;;5122658;27;20057;-53
2020/12/08 13:38:33;;;;;;;4.97;1.67;;;10.50;99.90;;;;;;5131174;27;20046;-53
2020/12/08 13:41:37;;;;;;;2.47;1.60;;;10.60;99.90;;;;;;5119596;27;20622;-57
2020/12/08 13:44:42;;;;;;;3.35;2.03;;;10.80;99.90;;;;;;5121876;27;20046;-58
2020/12/08 13:47:46;;;;;;;2.95;1.55;;;11.30;99.90;;;;;;5127953;27;20133;-52
2020/12/08 13:50:50;;;;;;;6.13;3.33;;;11.60;99.90;;;;;;5119406;27;20883;-56
2020/12/08 13:53:55;;;;;;;3.85;2.13;;;11.70;99.90;;;;;;5123989;27;20042;-52
2020/12/08 13:56:59;;;;;;;3.13;1.38;;;11.60;99.90;;;;;;5122794;27;20062;-55
2020/12/08 14:00:05;;;;;;;1.35;1.00;;;11.50;99.90;;;;;;5120574;27;20123;-57
2020/12/08 14:03:17;;;;;;;3.53;1.40;;;11.30;99.90;;;;;;5123020;27;20058;-53
2020/12/08 14:06:21;;;;;;;3.00;1.60;;;11.20;99.90;;;;;;5121460;27;20054;-52
2020/12/08 14:09:25;;;;;;;4.75;2.08;;;11.20;99.90;;;;;;5121331;27;20235;-54
2020/12/08 14:12:33;;;;;;;3.58;1.65;;;11.00;99.90;;;;;;5121252;27;20054;-55
2020/12/08 14:15:37;;;;;;;4.38;1.98;;;10.80;99.90;;;;;;5120381;27;20060;-52
2020/12/08 14:18:41;;;;;;;5.03;2.50;;;10.80;99.90;;;;;;5121589;27;20034;-54
2020/12/08 14:21:45;;;;;;;4.18;2.83;;;10.70;99.90;;;;;;5116014;27;20442;-57
2020/12/08 14:24:49;;;;;;;5.53;2.55;;;10.60;99.90;;;;;;5126050;27;20046;-54
2020/12/08 14:27:53;;;;;;;5.10;2.80;;;10.60;99.90;;;;;;5126987;27;20050;-55
2020/12/08 14:30:57;;;;;;;19.23;7.43;;;10.50;99.90;;;;;;5126588;27;21512;-57
2020/12/08 14:34:03;;;;;;;7.03;3.20;;;10.50;99.90;;;;;;5129568;27;21230;-56
2020/12/08 14:37:07;;;;;;;4.07;1.88;;;10.60;99.90;;;;;;5127389;27;20066;-52
2020/12/08 14:40:12;;;;;;;7.93;2.00;;;10.50;99.90;;;;;;5119752;27;20476;-55
2020/12/08 14:43:16;;;;;;;2.47;1.60;;;10.60;99.90;;;;;;5128402;27;20053;-51
2020/12/08 14:46:27;;;;;;;10.82;4.28;;;10.70;99.90;;;;;;5121858;27;20050;-53
2020/12/08 14:49:33;;;;;;;4.95;2.78;;;10.70;99.90;;;;;;5131991;27;20694;-54
2020/12/08 14:52:36;;;;;;;8.40;3.85;;;10.80;99.90;;;;;;5122209;27;20057;-57
2020/12/08 14:55:40;;;;;;;9.38;2.90;;;10.90;99.90;;;;;;5135280;27;20401;-54
2020/12/08 14:58:45;;;;;;;6.47;1.90;;;10.90;99.90;;;;;;5128613;27;20057;-55
2020/12/08 15:01:49;;;;;;;2.90;1.40;;;10.80;99.90;;;;;;5125920;27;20037;-56
2020/12/08 15:04:53;;;;;;;3.47;2.03;;;10.70;99.90;;;;;;5129860;27;20801;-58
2020/12/08 15:07:59;;;;;;;3.58;1.75;;;10.60;99.90;;;;;;5124458;27;20050;-56
2020/12/08 15:11:03;;;;;;;4.55;2.22;;;10.60;99.90;;;;;;5123079;27;20809;-54
2020/12/08 15:14:08;;;;;;;6.65;3.15;;;10.50;99.90;;;;;;5129509;27;20038;-54
2020/12/08 15:17:12;;;;;;;14.38;6.32;;;10.40;99.90;;;;;;5125241;27;20042;-54
2020/12/08 15:20:17;;;;;;;6.57;3.65;;;10.30;99.90;;;;;;5125611;27;20042;-57
2020/12/08 15:23:21;;;;;;;3.30;1.70;;;10.30;99.90;;;;;;5129494;27;20046;-54
2020/12/08 15:26:26;;;;;;;2.30;0.93;;;10.20;99.90;;;;;;5123801;27;20046;-57
2020/12/08 15:29:30;;;;;;;9.43;4.50;;;10.20;99.90;;;;;;5126081;27;20060;-55
2020/12/08 15:32:34;;;;;;;9.35;3.90;;;10.20;99.90;;;;;;5127716;27;20042;-57
2020/12/08 15:35:39;;;;;;;13.63;5.10;;;10.10;99.90;;;;;;5123784;27;20049;-56
2020/12/08 15:38:43;;;;;;;12.82;5.00;;;10.00;99.90;;;;;;5129665;27;20042;-56
2020/12/08 15:41:48;;;;;;;19.63;9.30;;;9.90;99.90;;;;;;5120003;27;20046;-56
2020/12/08 15:44:52;;;;;;;13.73;6.30;;;9.80;99.90;;;;;;5130792;27;20033;-58
2020/12/08 15:47:56;;;;;;;18.30;8.18;;;9.80;99.90;;;;;;5128590;27;20042;-55
2020/12/08 15:51:01;;;;;;;8.30;3.45;;;9.90;99.90;;;;;;5131719;27;20504;-57
2020/12/08 15:54:05;;;;;;;20.63;8.57;;;9.80;99.90;;;;;;5133464;27;20048;-56
2020/12/08 15:57:09;;;;;;;22.67;7.72;;;9.80;99.90;;;;;;5126815;27;20058;-55
2020/12/08 16:00:14;;;;;;;7.72;2.83;;;9.80;99.90;;;;;;5128749;27;20047;-57
2020/12/08 16:03:18;;;;;;;4.63;2.92;;;10.10;99.90;;;;;;5128592;27;20043;-57
2020/12/08 16:06:31;;;;;;;7.55;3.10;;;10.10;99.90;;;;;;5136363;27;20050;-55
2020/12/08 16:09:35;;;;;;;2.97;1.90;;;10.00;99.90;;;;;;5131308;27;20057;-52
2020/12/08 16:12:39;;;;;;;9.27;4.32;;;10.10;99.90;;;;;;5128442;27;20121;-56